Time;durP1;ratioP1;P1;durP2;ratioP2;P2;SDS_P1;SDS_P2;PMS_P1;PMS_P2;Temp;Humidity;BMP_temperature;BMP_pressure;BME280_temperature;BME280_humidity;BME280_pressure;Samples;Min_cycle;Max_cycle;Signal;HPM_P1;HPM_P2
2022/12/10 00:01:43;;;;;;;54.50;24.98;;;3.40;99.90;;;;;;5024169;28;20026;-86
2022/12/10 00:04:10;;;;;;;61.72;27.35;;;3.40;99.90;;;;;;5023035;28;20036;-85
2022/12/10 00:06:37;;;;;;;56.42;26.20;;;3.40;99.90;;;;;;5029740;28;20017;-86
2022/12/10 00:09:05;;;;;;;60.85;25.13;;;3.40;99.90;;;;;;5023276;28;20491;-85
2022/12/10 00:11:31;;;;;;;56.67;25.60;;;3.40;99.90;;;;;;5015787;28;20026;-85
2022/12/10 00:13:57;;;;;;;58.33;25.52;;;3.40;99.90;;;;;;5019396;28;20047;-86
2022/12/10 00:16:26;;;;;;;61.20;26.80;;;3.30;99.90;;;;;;5022283;28;20022;-86
2022/12/10 00:18:53;;;;;;;62.40;26.60;;;3.30;99.90;;;;;;5018028;28;20034;-86
2022/12/10 00:21:22;;;;;;;60.55;27.70;;;3.50;99.90;;;;;;5015373;28;20026;-86
2022/12/10 00:23:48;;;;;;;66.70;24.92;;;3.60;99.90;;;;;;5016621;28;20030;-86
2022/12/10 00:26:16;;;;;;;62.38;26.02;;;3.40;99.90;;;;;;5032004;28;20032;-86
2022/12/10 00:28:42;;;;;;;62.75;24.80;;;3.30;99.90;;;;;;5018507;28;20132;-86
2022/12/10 00:31:11;;;;;;;61.90;24.75;;;3.20;99.90;;;;;;5027232;28;20046;-86
2022/12/10 00:33:38;;;;;;;59.55;24.75;;;3.20;99.90;;;;;;5019228;28;20497;-86
2022/12/10 00:36:28;;;;;;;60.85;26.02;;;3.30;99.90;;;;;;5026197;28;20026;-86
2022/12/10 00:38:54;;;;;;;61.65;25.52;;;3.30;99.90;;;;;;4987509;28;20514;-85
2022/12/10 00:41:20;;;;;;;60.53;25.58;;;3.30;99.90;;;;;;5022886;28;20036;-86
2022/12/10 00:43:46;;;;;;;59.78;24.85;;;3.20;99.90;;;;;;5018584;28;20025;-85
2022/12/10 00:46:13;;;;;;;62.50;26.00;;;3.20;99.90;;;;;;5026888;28;20049;-85
2022/12/10 00:48:39;;;;;;;55.72;23.48;;;3.30;99.90;;;;;;5019490;28;20076;-85
2022/12/10 00:51:26;;;;;;;57.65;22.75;;;3.30;99.90;;;;;;5031852;28;20045;-86
2022/12/10 00:53:54;;;;;;;57.25;23.58;;;3.30;99.90;;;;;;5025082;28;20045;-86
2022/12/10 00:56:23;;;;;;;58.53;24.50;;;3.10;99.90;;;;;;5013280;28;20516;-85
2022/12/10 00:58:50;;;;;;;57.83;24.63;;;3.30;99.90;;;;;;5014673;28;20378;-86
2022/12/10 01:01:28;;;;;;;54.47;23.85;;;3.30;99.90;;;;;;5004563;28;20064;-86
2022/12/10 01:03:57;;;;;;;56.40;24.55;;;3.20;99.90;;;;;;4997553;28;20037;-86
2022/12/10 01:06:31;;;;;;;55.80;23.45;;;3.30;99.90;;;;;;5014212;28;20479;-86
2022/12/10 01:09:00;;;;;;;56.47;23.85;;;3.20;99.90;;;;;;5015820;28;20552;-86
2022/12/10 01:11:29;;;;;;;53.13;23.58;;;3.20;99.90;;;;;;5030936;28;20482;-87
2022/12/10 01:13:55;;;;;;;49.63;22.20;;;3.20;99.90;;;;;;5014754;28;20034;-86
2022/12/10 01:16:22;;;;;;;49.17;23.55;;;3.10;99.90;;;;;;5015138;28;20029;-86
2022/12/10 01:18:48;;;;;;;49.45;21.85;;;3.20;99.90;;;;;;5022998;28;20079;-86
2022/12/10 01:21:16;;;;;;;59.63;24.42;;;3.30;99.90;;;;;;5014380;28;20026;-85
2022/12/10 01:23:44;;;;;;;49.35;22.77;;;3.20;99.90;;;;;;5025948;28;20482;-86
2022/12/10 01:26:12;;;;;;;60.17;22.25;;;3.30;99.90;;;;;;5017563;28;20067;-86
2022/12/10 01:28:39;;;;;;;54.80;23.88;;;3.50;99.90;;;;;;5014716;28;20092;-86
2022/12/10 01:31:08;;;;;;;51.17;23.55;;;3.60;99.90;;;;;;5013024;28;20406;-86
2022/12/10 01:33:35;;;;;;;44.85;21.27;;;3.40;99.90;;;;;;5021585;28;20026;-86
2022/12/10 01:36:09;;;;;;;47.03;21.40;;;3.50;99.90;;;;;;5032815;28;20035;-86
2022/12/10 01:38:36;;;;;;;45.40;20.77;;;3.10;99.90;;;;;;5032647;28;20035;-86
2022/12/10 01:41:02;;;;;;;45.10;21.30;;;3.10;99.90;;;;;;5016271;28;20022;-86
2022/12/10 01:43:47;;;;;;;46.05;20.83;;;3.20;99.90;;;;;;5031911;28;20047;-86
2022/12/10 01:46:13;;;;;;;43.47;19.40;;;3.30;99.90;;;;;;5030033;28;20032;-85
2022/12/10 01:48:39;;;;;;;43.42;20.65;;;3.30;99.90;;;;;;5023695;28;20030;-86
2022/12/10 01:51:04;;;;;;;48.13;20.45;;;3.20;99.90;;;;;;5011496;28;20042;-86
2022/12/10 01:53:31;;;;;;;37.90;20.23;;;3.20;99.90;;;;;;5013685;28;20025;-85
2022/12/10 01:55:56;;;;;;;37.22;18.52;;;3.10;99.90;;;;;;5024806;28;20038;-86
2022/12/10 01:58:22;;;;;;;38.60;19.02;;;3.20;99.90;;;;;;5019283;28;20052;-86
2022/12/10 02:01:23;;;;;;;42.45;20.30;;;3.20;99.90;;;;;;5012668;28;20030;-86
2022/12/10 02:04:15;;;;;;;44.92;19.73;;;3.30;99.90;;;;;;5027564;28;20396;-86
2022/12/10 02:07:04;;;;;;;37.03;20.63;;;3.30;99.90;;;;;;5032524;28;20079;-85
2022/12/10 02:09:40;;;;;;;42.63;19.45;;;3.30;99.90;;;;;;5025537;28;20022;-85
2022/12/10 02:12:16;;;;;;;41.70;19.17;;;3.30;99.90;;;;;;5012407;28;20464;-86
2022/12/10 02:14:51;;;;;;;40.88;18.88;;;3.30;99.90;;;;;;5011919;28;20022;-85
2022/12/10 02:17:23;;;;;;;42.03;19.20;;;3.20;99.90;;;;;;5011510;28;20060;-86
2022/12/10 02:19:58;;;;;;;41.33;18.30;;;3.30;99.90;;;;;;5012472;28;20018;-85
2022/12/10 02:22:28;;;;;;;42.25;19.33;;;3.10;99.90;;;;;;5012503;28;20052;-86
2022/12/10 02:24:55;;;;;;;34.72;17.05;;;3.20;99.90;;;;;;5012611;28;20039;-86
2022/12/10 02:27:33;;;;;;;42.95;19.33;;;3.30;99.90;;;;;;5012155;28;20050;-86
2022/12/10 02:30:00;;;;;;;48.70;20.35;;;3.20;99.90;;;;;;5010842;28;20065;-86
2022/12/10 02:32:32;;;;;;;46.90;20.02;;;3.10;99.90;;;;;;5012707;28;20038;-86
2022/12/10 02:35:01;;;;;;;48.20;21.25;;;3.00;99.90;;;;;;4991571;28;20026;-86
2022/12/10 02:37:50;;;;;;;52.40;21.55;;;3.00;99.90;;;;;;4997659;28;20041;-85
2022/12/10 02:40:22;;;;;;;45.60;20.35;;;3.10;99.90;;;;;;4992898;28;20061;-86
2022/12/10 02:42:51;;;;;;;44.95;21.42;;;3.10;99.90;;;;;;5015391;28;20034;-86
2022/12/10 02:45:19;;;;;;;52.47;22.35;;;3.00;99.90;;;;;;5031982;28;20108;-86
2022/12/10 02:47:46;;;;;;;50.78;20.15;;;3.00;99.90;;;;;;5014714;28;20029;-86
2022/12/10 02:50:15;;;;;;;51.55;21.10;;;3.00;99.90;;;;;;5028381;28;20395;-86
2022/12/10 02:52:40;;;;;;;45.50;21.70;;;2.90;99.90;;;;;;5029154;28;20038;-86
2022/12/10 02:55:10;;;;;;;46.35;22.20;;;3.00;99.90;;;;;;5014676;28;20113;-86
2022/12/10 02:57:48;;;;;;;46.85;20.88;;;3.10;99.90;;;;;;5016977;28;20087;-86
2022/12/10 03:00:24;;;;;;;47.30;21.45;;;3.00;99.90;;;;;;5018388;28;20026;-86
2022/12/10 03:03:21;;;;;;;43.15;20.80;;;3.10;99.90;;;;;;5017453;28;20026;-86
2022/12/10 03:06:21;;;;;;;42.45;21.40;;;3.10;99.90;;;;;;5015747;28;20026;-86
2022/12/10 03:09:01;;;;;;;39.45;20.13;;;3.10;99.90;;;;;;5024254;28;20552;-86
2022/12/10 03:11:27;;;;;;;37.78;20.30;;;3.40;99.90;;;;;;5023228;28;20410;-85
2022/12/10 03:13:56;;;;;;;42.70;22.10;;;3.00;99.90;;;;;;5017280;28;20034;-86
2022/12/10 03:16:24;;;;;;;37.83;20.00;;;3.00;99.90;;;;;;5029007;28;20101;-86
2022/12/10 03:18:54;;;;;;;40.83;22.20;;;3.10;99.90;;;;;;5030814;28;20486;-86
2022/12/10 03:21:21;;;;;;;41.97;23.33;;;3.10;99.90;;;;;;5034564;28;20397;-86
2022/12/10 03:23:48;;;;;;;39.08;22.15;;;3.00;99.90;;;;;;5019942;28;20038;-85
2022/12/10 03:26:15;;;;;;;44.60;24.08;;;3.00;99.90;;;;;;5032534;28;20025;-85
2022/12/10 03:28:49;;;;;;;42.30;24.15;;;3.00;99.90;;;;;;5017809;28;20061;-85
2022/12/10 03:31:17;;;;;;;43.40;23.33;;;3.00;99.90;;;;;;5026921;28;20041;-86
2022/12/10 03:33:44;;;;;;;40.03;22.73;;;3.00;99.90;;;;;;5021784;28;20494;-85
2022/12/10 03:36:12;;;;;;;35.85;18.17;;;2.70;99.90;;;;;;5014090;28;20088;-86
2022/12/10 03:38:38;;;;;;;46.83;24.63;;;2.70;99.90;;;;;;5026408;28;20456;-86
2022/12/10 03:41:04;;;;;;;42.80;24.83;;;2.70;99.90;;;;;;5025426;28;20473;-86
2022/12/10 03:43:29;;;;;;;43.25;25.08;;;2.70;99.90;;;;;;5028584;28;20026;-85
2022/12/10 03:45:55;;;;;;;45.47;25.80;;;2.90;99.90;;;;;;5014707;28;20058;-85
2022/12/10 03:48:21;;;;;;;46.65;26.23;;;2.90;99.90;;;;;;5028100;28;20080;-85
2022/12/10 03:50:46;;;;;;;44.42;25.20;;;2.80;99.90;;;;;;5020914;28;20034;-86
2022/12/10 03:53:12;;;;;;;44.92;25.92;;;2.80;99.90;;;;;;5014953;28;20067;-85
2022/12/10 03:55:37;;;;;;;43.55;25.25;;;2.80;99.90;;;;;;5025315;28;20541;-86
2022/12/10 03:58:03;;;;;;;43.83;25.42;;;2.80;99.90;;;;;;5013647;28;20507;-86
2022/12/10 04:00:29;;;;;;;47.80;25.55;;;2.80;99.90;;;;;;5030873;28;20505;-86
2022/12/10 04:02:55;;;;;;;42.13;24.70;;;2.70;99.90;;;;;;5027197;28;20080;-86
2022/12/10 04:05:20;;;;;;;40.55;23.95;;;2.60;99.90;;;;;;5018617;28;20539;-86
2022/12/10 04:07:46;;;;;;;41.25;23.35;;;2.70;99.90;;;;;;5017139;28;20044;-86
2022/12/10 04:10:12;;;;;;;37.72;23.05;;;2.80;99.90;;;;;;5032445;28;20029;-85
2022/12/10 04:12:38;;;;;;;41.00;23.08;;;2.60;99.90;;;;;;5026290;28;20125;-86
2022/12/10 04:17:48;;;;;;;37.78;21.15;;;2.70;99.90;;;;;;5023694;28;20076;-86
2022/12/10 04:28:27;;;;;;;36.33;21.15;;;2.50;99.90;;;;;;5028296;28;20056;-86
2022/12/10 04:30:53;;;;;;;37.13;22.33;;;2.50;99.90;;;;;;5015648;28;20030;-85
2022/12/10 04:33:18;;;;;;;42.08;22.92;;;2.80;99.90;;;;;;5027225;28;20045;-86
2022/12/10 04:35:44;;;;;;;39.90;24.27;;;2.90;99.90;;;;;;5027646;28;20075;-86
2022/12/10 04:38:09;;;;;;;40.60;23.67;;;2.70;99.90;;;;;;5031890;28;20520;-85
2022/12/10 04:40:35;;;;;;;42.47;24.50;;;2.70;99.90;;;;;;5021921;28;20057;-86
2022/12/10 04:43:01;;;;;;;37.95;23.05;;;2.70;99.90;;;;;;5029727;28;20136;-86
2022/12/10 04:45:26;;;;;;;39.88;23.58;;;2.50;99.90;;;;;;5031268;28;20037;-86
2022/12/10 04:47:52;;;;;;;42.15;25.92;;;2.40;99.90;;;;;;5026215;28;20037;-85
2022/12/10 04:50:17;;;;;;;43.08;26.05;;;2.40;99.90;;;;;;5026587;28;20030;-86
2022/12/10 04:52:43;;;;;;;41.80;25.30;;;2.50;99.90;;;;;;5015011;28;20042;-85
2022/12/10 04:55:09;;;;;;;41.15;26.40;;;2.50;99.90;;;;;;5022361;28;20037;-86
2022/12/10 04:57:34;;;;;;;43.05;27.30;;;2.40;99.90;;;;;;5013891;28;20080;-86
2022/12/10 05:00:00;;;;;;;44.83;27.75;;;2.50;99.90;;;;;;5013200;28;20030;-85
2022/12/10 05:02:26;;;;;;;40.08;25.23;;;2.50;99.90;;;;;;5012228;28;20033;-84
2022/12/10 05:04:51;;;;;;;41.42;26.10;;;2.60;99.90;;;;;;5012695;28;20033;-85
2022/12/10 05:07:17;;;;;;;42.42;26.17;;;2.70;99.90;;;;;;5012543;28;20417;-86
2022/12/10 05:09:42;;;;;;;39.70;26.25;;;2.60;99.90;;;;;;5012291;28;20029;-86
2022/12/10 05:12:08;;;;;;;40.65;25.65;;;2.60;99.90;;;;;;5013103;28;20116;-85
2022/12/10 05:14:34;;;;;;;42.25;27.73;;;2.60;99.90;;;;;;5013733;28;20030;-86
2022/12/10 05:16:59;;;;;;;42.78;26.08;;;2.50;99.90;;;;;;5013351;28;20551;-86
2022/12/10 05:19:28;;;;;;;39.85;24.92;;;2.40;99.90;;;;;;5013305;28;20029;-86
2022/12/10 05:24:38;;;;;;;43.78;26.20;;;2.40;99.90;;;;;;5013362;28;20029;-86
2022/12/10 05:27:04;;;;;;;45.90;28.55;;;2.40;99.90;;;;;;5013495;28;20054;-86
2022/12/10 05:29:31;;;;;;;45.47;27.83;;;2.30;99.90;;;;;;5031028;28;20375;-86
2022/12/10 05:31:57;;;;;;;42.28;26.42;;;2.40;99.90;;;;;;5014986;28;20084;-86
2022/12/10 05:34:23;;;;;;;43.58;27.65;;;2.40;99.90;;;;;;5031399;28;20053;-86
2022/12/10 05:36:48;;;;;;;44.80;28.45;;;2.50;99.90;;;;;;5028791;28;20548;-86
2022/12/10 05:39:14;;;;;;;49.38;28.50;;;2.50;99.90;;;;;;5033351;28;20026;-85
2022/12/10 05:41:40;;;;;;;46.47;28.77;;;2.50;99.90;;;;;;5030104;28;20030;-85
2022/12/10 05:44:07;;;;;;;46.30;28.40;;;2.30;99.90;;;;;;5021275;28;20045;-86
2022/12/10 05:46:34;;;;;;;50.92;30.73;;;2.40;99.90;;;;;;5008119;28;20030;-86
2022/12/10 05:49:01;;;;;;;49.90;30.38;;;2.50;99.90;;;;;;5028856;28;20018;-85
2022/12/10 05:51:29;;;;;;;48.95;29.10;;;2.40;99.90;;;;;;5016572;28;20037;-84
2022/12/10 05:53:57;;;;;;;42.38;24.98;;;2.30;99.90;;;;;;5013224;28;20026;-86
2022/12/10 05:56:24;;;;;;;49.63;29.60;;;2.20;99.90;;;;;;5014737;28;20021;-86
2022/12/10 05:58:52;;;;;;;52.22;30.38;;;2.30;99.90;;;;;;5028907;28;20021;-85
2022/12/10 06:01:24;;;;;;;51.20;30.38;;;2.40;99.90;;;;;;5019962;28;20108;-85
2022/12/10 06:03:52;;;;;;;47.80;29.23;;;2.70;99.90;;;;;;5015415;28;20028;-86
2022/12/10 06:06:26;;;;;;;48.58;28.85;;;2.30;99.90;;;;;;5032806;28;20056;-84
2022/12/10 06:08:52;;;;;;;51.92;30.33;;;2.40;99.90;;;;;;5013671;28;20029;-85
2022/12/10 06:11:18;;;;;;;45.40;28.50;;;2.40;99.90;;;;;;5016281;28;20566;-86
2022/12/10 06:13:44;;;;;;;54.05;31.27;;;2.40;99.90;;;;;;5021655;28;20084;-85
2022/12/10 06:16:12;;;;;;;51.45;30.23;;;2.40;99.90;;;;;;5030719;28;20033;-86
2022/12/10 06:18:38;;;;;;;45.55;28.02;;;2.40;99.90;;;;;;5021859;28;20026;-86
2022/12/10 06:21:05;;;;;;;51.03;30.05;;;2.50;99.90;;;;;;5023532;28;20045;-86
2022/12/10 06:23:31;;;;;;;48.97;28.38;;;2.60;99.90;;;;;;5029542;28;20370;-86
2022/12/10 06:25:57;;;;;;;49.92;29.63;;;2.60;99.90;;;;;;5030021;28;20039;-85
2022/12/10 06:28:22;;;;;;;47.90;29.48;;;2.70;99.90;;;;;;5016443;28;20046;-85
2022/12/10 06:30:48;;;;;;;44.60;26.70;;;2.70;99.90;;;;;;5025787;28;20033;-85
2022/12/10 06:33:14;;;;;;;44.05;27.58;;;2.70;99.90;;;;;;5028426;28;20030;-86
2022/12/10 06:35:39;;;;;;;49.85;28.63;;;2.60;99.90;;;;;;5014523;28;20068;-84
2022/12/10 06:38:05;;;;;;;43.28;26.13;;;2.60;99.90;;;;;;5030534;28;20037;-85
2022/12/10 06:40:30;;;;;;;44.72;28.27;;;2.60;99.90;;;;;;5033139;28;20120;-86
2022/12/10 06:42:56;;;;;;;42.33;26.25;;;2.90;99.90;;;;;;5035275;28;20037;-86
2022/12/10 06:45:21;;;;;;;41.45;26.02;;;2.50;99.90;;;;;;5019725;28;20065;-85
2022/12/10 06:47:47;;;;;;;36.80;22.73;;;2.40;99.90;;;;;;5029581;28;20044;-85
2022/12/10 06:50:13;;;;;;;50.20;31.38;;;2.30;99.90;;;;;;5016349;28;20034;-85
2022/12/10 06:52:38;;;;;;;48.50;30.40;;;2.30;99.90;;;;;;5029972;28;20518;-86
2022/12/10 06:55:04;;;;;;;42.65;27.45;;;2.40;99.90;;;;;;5017387;28;20168;-85
2022/12/10 06:57:30;;;;;;;68.15;41.10;;;2.50;99.90;;;;;;5027140;28;20520;-86
2022/12/10 06:59:56;;;;;;;40.17;26.15;;;2.40;99.90;;;;;;5028522;28;20033;-86
2022/12/10 07:02:21;;;;;;;42.83;26.50;;;2.30;99.90;;;;;;5019187;28;20451;-86
2022/12/10 07:04:47;;;;;;;164.27;84.20;;;2.40;99.90;;;;;;5016451;28;20526;-85
2022/12/10 07:07:12;;;;;;;50.83;32.40;;;2.40;99.90;;;;;;5004954;28;20029;-86
2022/12/10 07:09:38;;;;;;;72.80;46.95;;;2.40;99.90;;;;;;5014240;28;20053;-86
2022/12/10 07:12:04;;;;;;;46.42;28.90;;;2.30;99.90;;;;;;5015382;28;20099;-86
2022/12/10 07:14:30;;;;;;;45.22;27.85;;;2.30;99.90;;;;;;5005479;28;20518;-86
2022/12/10 07:16:56;;;;;;;45.72;27.42;;;2.30;99.90;;;;;;4996326;28;20408;-86
2022/12/10 07:19:22;;;;;;;62.97;36.08;;;2.20;99.90;;;;;;5005107;28;20049;-85
2022/12/10 07:21:48;;;;;;;42.17;26.20;;;2.40;99.90;;;;;;5027132;28;20490;-83
2022/12/10 07:24:16;;;;;;;63.67;37.63;;;2.70;99.90;;;;;;5014584;28;20029;-84
2022/12/10 07:26:44;;;;;;;64.25;37.78;;;2.80;99.90;;;;;;5014956;28;20045;-84
2022/12/10 07:29:14;;;;;;;52.90;33.53;;;2.90;99.90;;;;;;5015162;28;20072;-84
2022/12/10 07:31:40;;;;;;;45.65;28.92;;;3.00;99.90;;;;;;5014768;28;20061;-84
2022/12/10 07:34:06;;;;;;;48.17;30.45;;;2.90;99.90;;;;;;5028166;28;20510;-85
2022/12/10 07:36:31;;;;;;;45.50;29.33;;;2.80;99.90;;;;;;5035634;28;20064;-84
2022/12/10 07:38:57;;;;;;;44.85;28.58;;;2.80;99.90;;;;;;5022103;28;20117;-84
2022/12/10 07:41:23;;;;;;;44.55;28.48;;;2.80;99.90;;;;;;5014796;28;20033;-84
2022/12/10 07:43:49;;;;;;;64.40;40.45;;;2.90;99.90;;;;;;5014835;28;20607;-84
2022/12/10 07:46:28;;;;;;;72.28;44.50;;;2.60;99.90;;;;;;5016077;28;20064;-85
2022/12/10 07:48:54;;;;;;;70.72;46.55;;;2.60;99.90;;;;;;5026502;28;20072;-84
2022/12/10 07:51:21;;;;;;;56.33;36.53;;;2.70;99.90;;;;;;5016183;28;20052;-84
2022/12/10 07:53:47;;;;;;;68.07;41.85;;;2.70;99.90;;;;;;5032992;28;20367;-84
2022/12/10 07:56:13;;;;;;;54.97;32.97;;;2.90;99.90;;;;;;5032843;28;20109;-84
2022/12/10 07:58:43;;;;;;;64.32;43.58;;;2.80;99.90;;;;;;5029673;28;20190;-84
2022/12/10 08:01:12;;;;;;;48.58;30.98;;;2.70;99.90;;;;;;5034293;28;20025;-84
2022/12/10 08:03:38;;;;;;;46.28;30.75;;;2.90;99.90;;;;;;5031454;28;20188;-84
2022/12/10 08:06:06;;;;;;;48.70;31.83;;;2.90;99.90;;;;;;5032557;28;20545;-83
2022/12/10 08:08:33;;;;;;;43.40;28.80;;;2.90;99.90;;;;;;5033287;28;20036;-84
2022/12/10 08:11:00;;;;;;;43.05;26.85;;;2.90;99.90;;;;;;5030399;28;20366;-84
2022/12/10 08:13:26;;;;;;;44.08;29.42;;;2.80;99.90;;;;;;5018046;28;20475;-84
2022/12/10 08:15:52;;;;;;;46.92;29.23;;;2.80;99.90;;;;;;5015228;28;20101;-85
2022/12/10 08:18:18;;;;;;;42.55;26.20;;;3.00;99.90;;;;;;5016603;28;20172;-84
2022/12/10 08:20:44;;;;;;;45.85;30.38;;;2.80;99.90;;;;;;5013498;28;20033;-84
2022/12/10 08:23:09;;;;;;;40.53;27.55;;;2.80;99.90;;;;;;5029685;28;20045;-84
2022/12/10 08:25:36;;;;;;;47.00;29.27;;;3.00;99.90;;;;;;5034621;28;20512;-84
2022/12/10 08:28:03;;;;;;;48.33;30.50;;;2.80;99.90;;;;;;5019717;28;20045;-84
2022/12/10 08:30:29;;;;;;;79.65;44.47;;;2.70;99.90;;;;;;5023912;28;20025;-83
2022/12/10 08:32:55;;;;;;;77.38;39.65;;;2.70;99.90;;;;;;5023106;28;20048;-84
2022/12/10 08:35:20;;;;;;;66.65;36.47;;;2.70;99.90;;;;;;5032625;28;20100;-84
2022/12/10 08:37:46;;;;;;;40.50;27.13;;;2.70;99.90;;;;;;5034129;28;20034;-84
2022/12/10 08:40:12;;;;;;;40.20;26.35;;;2.80;99.90;;;;;;5032600;28;20503;-84
2022/12/10 08:42:38;;;;;;;43.67;26.15;;;2.90;99.90;;;;;;5016294;28;20482;-85
2022/12/10 08:45:05;;;;;;;49.10;29.65;;;3.00;99.90;;;;;;5013429;28;20025;-84
2022/12/10 08:47:31;;;;;;;60.80;36.08;;;2.90;99.90;;;;;;5025392;28;20021;-84
2022/12/10 08:49:57;;;;;;;38.85;24.73;;;2.80;99.90;;;;;;5032974;28;20110;-83
2022/12/10 08:52:22;;;;;;;53.65;32.53;;;2.70;99.90;;;;;;5017045;28;20033;-84
2022/12/10 08:54:48;;;;;;;46.92;29.10;;;2.80;99.90;;;;;;5015140;28;20032;-89
2022/12/10 08:57:13;;;;;;;42.20;26.50;;;3.10;99.90;;;;;;5014696;28;20034;-86
2022/12/10 08:59:39;;;;;;;70.43;42.38;;;2.90;99.90;;;;;;5023828;28;20489;-84
2022/12/10 09:02:05;;;;;;;44.17;25.55;;;2.90;99.90;;;;;;5033897;28;20044;-84
2022/12/10 09:04:30;;;;;;;42.80;26.88;;;3.00;99.90;;;;;;5032629;28;20025;-84
2022/12/10 09:06:56;;;;;;;48.83;31.05;;;2.90;99.90;;;;;;5033318;28;20125;-85
2022/12/10 09:09:21;;;;;;;63.35;38.55;;;2.80;99.90;;;;;;5033014;28;20362;-85
2022/12/10 09:11:47;;;;;;;58.63;34.95;;;2.90;99.90;;;;;;5031071;28;20551;-85
2022/12/10 09:14:13;;;;;;;46.05;29.02;;;3.00;99.90;;;;;;5013415;28;20435;-85
2022/12/10 09:16:39;;;;;;;46.95;29.88;;;2.90;99.90;;;;;;5013498;28;20073;-84
2022/12/10 09:19:06;;;;;;;41.63;24.67;;;2.90;99.90;;;;;;5012977;28;20545;-84
2022/12/10 09:21:31;;;;;;;50.13;30.27;;;3.00;99.90;;;;;;5013266;28;20487;-84
2022/12/10 09:23:58;;;;;;;71.47;45.08;;;3.30;99.90;;;;;;5013039;28;20077;-84
2022/12/10 09:26:24;;;;;;;43.22;27.65;;;2.90;99.90;;;;;;5013167;28;20026;-84
2022/12/10 09:28:50;;;;;;;48.45;29.80;;;3.10;99.90;;;;;;5012724;28;20030;-84
2022/12/10 09:31:18;;;;;;;54.05;33.50;;;3.10;99.90;;;;;;5011816;28;20032;-85
2022/12/10 09:33:46;;;;;;;41.92;25.50;;;3.50;99.90;;;;;;5022562;28;20033;-85
2022/12/10 09:36:13;;;;;;;49.28;30.60;;;3.40;99.90;;;;;;5033207;28;20021;-85
2022/12/10 09:38:40;;;;;;;47.78;32.05;;;3.00;99.90;;;;;;5032748;28;20022;-85
2022/12/10 09:41:34;;;;;;;45.35;31.73;;;2.90;99.90;;;;;;5032714;28;20036;-84
2022/12/10 09:44:22;;;;;;;39.63;25.77;;;3.00;99.90;;;;;;5032524;28;20041;-84
2022/12/10 09:46:52;;;;;;;40.22;24.50;;;3.00;99.90;;;;;;5032942;28;20029;-84
2022/12/10 09:49:42;;;;;;;41.40;24.23;;;3.10;99.90;;;;;;5032508;28;20022;-84
2022/12/10 09:52:13;;;;;;;45.08;26.95;;;3.10;99.90;;;;;;5032510;28;20041;-84
2022/12/10 09:55:04;;;;;;;34.97;22.58;;;3.20;99.90;;;;;;5030965;28;20117;-83
2022/12/10 09:57:42;;;;;;;40.42;25.17;;;3.20;99.90;;;;;;5025724;28;20096;-85
2022/12/10 10:00:11;;;;;;;40.30;26.67;;;3.10;99.90;;;;;;5031275;28;20371;-84
2022/12/10 10:02:37;;;;;;;38.17;24.67;;;3.10;99.90;;;;;;5032226;28;20124;-85
2022/12/10 10:05:06;;;;;;;42.50;26.38;;;3.20;99.90;;;;;;5031870;28;20163;-84
2022/12/10 10:07:35;;;;;;;42.28;25.42;;;3.40;99.90;;;;;;5031025;28;20494;-84
2022/12/10 10:10:07;;;;;;;36.17;24.80;;;3.30;99.90;;;;;;5031849;28;20117;-84
2022/12/10 10:12:34;;;;;;;33.88;20.85;;;3.40;99.90;;;;;;5024039;28;20065;-85
2022/12/10 10:15:14;;;;;;;39.35;24.42;;;3.40;99.90;;;;;;5011071;28;20050;-84
2022/12/10 10:17:45;;;;;;;39.75;25.05;;;3.40;99.90;;;;;;5010739;28;20026;-84
2022/12/10 10:20:12;;;;;;;39.50;24.02;;;3.50;99.90;;;;;;5012527;28;20029;-84
2022/12/10 10:22:38;;;;;;;35.60;21.90;;;3.50;99.90;;;;;;5012349;28;20026;-84
2022/12/10 10:25:05;;;;;;;42.90;27.73;;;3.30;99.90;;;;;;5012397;28;20506;-84
2022/12/10 10:27:35;;;;;;;50.03;30.00;;;3.30;99.90;;;;;;5010894;28;20042;-84
2022/12/10 10:30:03;;;;;;;66.53;36.28;;;3.30;99.90;;;;;;5012719;28;20122;-85
2022/12/10 10:32:50;;;;;;;47.90;27.75;;;3.30;99.90;;;;;;5012049;28;20042;-85
2022/12/10 10:35:41;;;;;;;52.22;27.77;;;3.40;99.90;;;;;;5009826;28;20033;-84
2022/12/10 10:38:14;;;;;;;55.22;31.17;;;3.20;99.90;;;;;;5024109;28;20033;-84
2022/12/10 10:40:42;;;;;;;42.53;25.98;;;3.10;99.90;;;;;;5012597;28;20037;-84
2022/12/10 10:43:23;;;;;;;40.15;24.67;;;3.30;99.90;;;;;;5012192;28;20474;-85
2022/12/10 10:45:58;;;;;;;189.73;78.53;;;3.50;99.90;;;;;;5011942;28;20048;-84
2022/12/10 10:48:26;;;;;;;118.75;54.17;;;3.30;99.90;;;;;;5013716;28;20045;-85
2022/12/10 10:51:11;;;;;;;53.50;30.30;;;3.30;99.90;;;;;;5014665;28;20038;-84
2022/12/10 10:53:47;;;;;;;58.28;31.42;;;3.50;99.90;;;;;;5012184;28;20044;-84
2022/12/10 10:56:21;;;;;;;52.85;30.50;;;3.50;99.90;;;;;;5011792;28;20022;-84
2022/12/10 10:58:55;;;;;;;40.05;23.67;;;3.40;99.90;;;;;;5033482;28;20448;-85
2022/12/10 11:01:21;;;;;;;107.38;52.85;;;3.30;99.90;;;;;;5029444;28;20083;-86
2022/12/10 11:03:50;;;;;;;31.95;19.77;;;3.20;99.90;;;;;;5015042;28;20135;-86
2022/12/10 11:06:17;;;;;;;54.20;28.63;;;3.20;99.90;;;;;;5031846;28;20038;-86
2022/12/10 11:08:46;;;;;;;80.43;38.95;;;3.50;99.90;;;;;;5031489;28;20108;-86
2022/12/10 11:11:19;;;;;;;44.50;25.30;;;3.20;99.90;;;;;;5014576;28;20033;-86
2022/12/10 11:13:45;;;;;;;71.57;36.53;;;3.20;99.90;;;;;;5015476;28;20022;-86
2022/12/10 11:16:24;;;;;;;69.68;37.80;;;3.20;99.90;;;;;;5025012;28;20076;-87
2022/12/10 11:19:02;;;;;;;39.20;24.77;;;3.10;99.90;;;;;;5017069;28;20025;-87
2022/12/10 11:21:30;;;;;;;29.40;18.73;;;3.10;99.90;;;;;;5035493;28;20104;-85
2022/12/10 11:23:58;;;;;;;75.90;42.25;;;3.20;99.90;;;;;;5031753;28;20060;-85
2022/12/10 11:26:42;;;;;;;63.53;35.53;;;3.20;99.90;;;;;;5016021;28;20030;-85
2022/12/10 11:29:38;;;;;;;47.95;27.50;;;3.30;99.90;;;;;;5006817;28;20038;-84
2022/12/10 11:32:13;;;;;;;50.83;28.63;;;3.20;99.90;;;;;;5006771;28;20037;-86
2022/12/10 11:34:47;;;;;;;51.63;31.23;;;3.30;99.90;;;;;;5030338;28;20375;-84
2022/12/10 11:37:30;;;;;;;76.22;37.70;;;3.50;99.90;;;;;;5023354;28;20030;-84
2022/12/10 11:40:18;;;;;;;54.67;32.70;;;3.50;99.90;;;;;;5014843;28;20022;-84
2022/12/10 11:43:08;;;;;;;66.82;40.63;;;3.60;99.90;;;;;;5013776;28;20022;-85
2022/12/10 11:45:55;;;;;;;46.70;27.70;;;3.70;99.90;;;;;;5015063;28;20049;-85
2022/12/10 11:48:30;;;;;;;165.93;107.30;;;3.70;99.90;;;;;;5015235;28;20445;-85
2022/12/10 11:51:34;;;;;;;62.90;48.40;;;3.60;99.90;;;;;;5015134;28;20030;-83
2022/12/10 11:54:28;;;;;;;29.73;18.42;;;3.70;99.90;;;;;;5014547;28;20038;-84
2022/12/10 11:57:08;;;;;;;27.20;19.35;;;3.80;99.90;;;;;;5014779;28;20085;-85
2022/12/10 11:59:44;;;;;;;24.60;15.95;;;3.60;99.90;;;;;;5019118;28;20025;-83
2022/12/10 12:02:35;;;;;;;18.88;13.82;;;3.60;99.90;;;;;;5014042;28;20036;-84
2022/12/10 12:05:11;;;;;;;20.05;12.80;;;3.70;99.90;;;;;;5033102;28;20038;-84
2022/12/10 12:07:45;;;;;;;33.72;24.77;;;3.70;99.90;;;;;;5032451;28;20448;-83
2022/12/10 12:10:35;;;;;;;27.88;17.08;;;3.70;99.90;;;;;;5032257;28;20025;-85
2022/12/10 12:13:18;;;;;;;29.48;18.48;;;3.60;99.90;;;;;;5016297;28;20038;-83
2022/12/10 12:15:54;;;;;;;26.40;20.63;;;3.60;99.90;;;;;;4995055;28;20054;-83
2022/12/10 12:18:46;;;;;;;15.85;10.80;;;3.50;99.90;;;;;;4999105;28;20121;-86
2022/12/10 12:21:15;;;;;;;15.48;11.18;;;3.60;99.90;;;;;;5016926;28;20026;-85
2022/12/10 12:23:40;;;;;;;17.90;12.48;;;3.40;99.90;;;;;;5026580;28;20030;-81
2022/12/10 12:26:29;;;;;;;14.30;10.77;;;3.30;99.90;;;;;;5021235;28;20033;-83
2022/12/10 12:29:19;;;;;;;17.50;12.18;;;3.40;99.90;;;;;;4993446;28;20402;-80
2022/12/10 12:31:52;;;;;;;16.45;11.82;;;3.30;99.90;;;;;;5015866;28;20044;-83
2022/12/10 12:34:24;;;;;;;17.27;11.98;;;3.70;99.90;;;;;;5028160;28;20025;-82
2022/12/10 12:36:50;;;;;;;16.85;11.23;;;3.50;99.90;;;;;;5032893;28;20060;-81
2022/12/10 12:39:28;;;;;;;20.50;13.68;;;3.60;99.90;;;;;;5021393;28;20080;-84
2022/12/10 12:42:03;;;;;;;21.73;13.75;;;3.60;99.90;;;;;;5012284;28;20029;-84
2022/12/10 12:44:32;;;;;;;22.73;15.05;;;3.40;99.90;;;;;;5014011;28;20106;-84
2022/12/10 12:47:10;;;;;;;20.40;14.48;;;3.30;99.90;;;;;;5013593;28;20030;-84
2022/12/10 12:49:39;;;;;;;19.20;14.30;;;3.40;99.90;;;;;;5013641;28;20445;-84
2022/12/10 12:52:33;;;;;;;22.38;14.32;;;3.00;99.90;;;;;;5013551;28;20117;-84
2022/12/10 12:55:04;;;;;;;26.40;16.33;;;3.00;99.90;;;;;;5013530;28;20402;-84
2022/12/10 12:58:18;;;;;;;23.85;16.27;;;2.90;99.90;;;;;;5013309;28;20026;-84
2022/12/10 13:00:49;;;;;;;24.77;16.02;;;2.70;99.90;;;;;;4952663;28;20047;-84
2022/12/10 13:03:39;;;;;;;27.27;16.85;;;2.90;99.90;;;;;;4953112;29;20082;-84
2022/12/10 13:06:16;;;;;;;24.50;16.38;;;3.20;99.90;;;;;;4952790;29;20042;-84